Time;durP1;ratioP1;P1;durP2;ratioP2;P2;SDS_P1;SDS_P2;PMS_P1;PMS_P2;Temp;Humidity;BMP_temperature;BMP_pressure;BME280_temperature;BME280_humidity;BME280_pressure;Samples;Min_cycle;Max_cycle;Signal;HPM_P1;HPM_P2
2023/10/24 00:02:19;;;;;;;13.38;8.65;;;;;;;;;;6262733;23;20016;-87
2023/10/24 00:04:46;;;;;;;16.88;9.13;;;;;;;;;;6193661;23;20074;-87
2023/10/24 00:07:12;;;;;;;17.42;9.77;;;;;;;;;;6193783;23;20020;-87
2023/10/24 00:09:39;;;;;;;14.23;8.77;;;;;;;;;;6219578;23;20023;-86
2023/10/24 00:12:05;;;;;;;15.93;10.00;;;;;;;;;;6193461;23;20467;-87
2023/10/24 00:14:31;;;;;;;14.80;9.38;;;;;;;;;;6193921;23;20020;-87
2023/10/24 00:16:57;;;;;;;15.40;9.85;;;;;;;;;;6193724;23;20074;-87
2023/10/24 00:19:23;;;;;;;16.67;9.90;;;;;;;;;;6218682;23;20016;-86
2023/10/24 00:21:49;;;;;;;17.35;10.05;;;;;;;;;;6218802;23;20063;-86
2023/10/24 00:24:15;;;;;;;14.88;9.68;;;;;;;;;;6220130;23;20019;-86
2023/10/24 00:26:41;;;;;;;16.35;9.82;;;;;;;;;;6193810;23;20016;-86
2023/10/24 00:29:07;;;;;;;15.40;10.15;;;;;;;;;;6217981;23;20091;-86
2023/10/24 00:31:33;;;;;;;17.80;9.70;;;;;;;;;;6192579;23;20047;-86
2023/10/24 00:33:59;;;;;;;13.70;9.57;;;;;;;;;;6219177;23;20459;-87
2023/10/24 00:36:25;;;;;;;15.73;9.32;;;;;;;;;;6192972;23;20111;-86
2023/10/24 00:38:51;;;;;;;15.90;10.60;;;;;;;;;;6246726;23;20108;-87
2023/10/24 00:41:17;;;;;;;16.23;10.25;;;;;;;;;;6219339;23;20024;-86
2023/10/24 00:43:43;;;;;;;18.40;10.32;;;;;;;;;;6218877;23;20020;-86
2023/10/24 00:46:10;;;;;;;17.02;10.13;;;;;;;;;;6219153;23;20107;-86
2023/10/24 00:48:36;;;;;;;16.98;11.43;;;;;;;;;;6245071;23;20024;-86
2023/10/24 00:51:02;;;;;;;17.65;10.07;;;;;;;;;;6193769;23;20072;-86
2023/10/24 00:53:29;;;;;;;14.75;10.80;;;;;;;;;;6192651;23;20093;-86
2023/10/24 00:55:55;;;;;;;17.98;10.40;;;;;;;;;;6218813;23;20020;-86
2023/10/24 00:58:21;;;;;;;16.52;10.25;;;;;;;;;;6218678;23;20089;-86
2023/10/24 01:00:47;;;;;;;16.38;10.13;;;;;;;;;;6193988;23;20058;-86
2023/10/24 01:03:13;;;;;;;15.98;10.48;;;;;;;;;;6218861;23;20047;-86
2023/10/24 01:05:40;;;;;;;17.70;11.15;;;;;;;;;;6193882;23;20024;-87
2023/10/24 01:08:07;;;;;;;14.85;10.13;;;;;;;;;;6193976;23;20086;-86
2023/10/24 01:10:33;;;;;;;16.42;10.38;;;;;;;;;;6218902;23;20016;-86
2023/10/24 01:12:59;;;;;;;16.20;10.35;;;;;;;;;;6218491;23;20024;-87
2023/10/24 01:15:25;;;;;;;16.50;10.68;;;;;;;;;;6194161;23;20023;-89
2023/10/24 01:17:51;;;;;;;20.10;11.35;;;;;;;;;;6194925;23;20035;-89
2023/10/24 01:20:17;;;;;;;20.65;11.93;;;;;;;;;;6194930;23;20119;-89
2023/10/24 01:22:47;;;;;;;16.75;10.15;;;;;;;;;;6194851;23;20016;-89
2023/10/24 01:25:14;;;;;;;18.33;10.82;;;;;;;;;;6194603;23;20051;-89
2023/10/24 01:27:42;;;;;;;17.60;11.38;;;;;;;;;;6194324;23;20016;-88
2023/10/24 01:30:09;;;;;;;15.82;10.45;;;;;;;;;;6193261;23;20020;-87
2023/10/24 01:32:35;;;;;;;18.83;10.93;;;;;;;;;;6193735;23;20069;-86
2023/10/24 01:35:01;;;;;;;16.23;10.82;;;;;;;;;;6193934;23;20020;-86
2023/10/24 01:37:27;;;;;;;18.05;11.40;;;;;;;;;;6218970;23;20020;-86
2023/10/24 01:39:53;;;;;;;17.58;10.93;;;;;;;;;;6218336;23;20042;-86
2023/10/24 01:42:19;;;;;;;19.13;11.55;;;;;;;;;;6232540;23;20017;-86
2023/10/24 01:44:46;;;;;;;19.50;12.05;;;;;;;;;;6209249;23;20016;-87
2023/10/24 01:47:12;;;;;;;18.65;11.10;;;;;;;;;;6225308;23;20023;-87
2023/10/24 01:49:38;;;;;;;18.50;10.88;;;;;;;;;;6195735;23;20043;-86
2023/10/24 01:52:04;;;;;;;18.25;11.15;;;;;;;;;;6194553;23;20091;-86
2023/10/24 01:54:30;;;;;;;17.58;10.77;;;;;;;;;;6192410;23;20467;-86
2023/10/24 01:56:56;;;;;;;21.70;10.68;;;;;;;;;;6218239;23;20412;-86
2023/10/24 01:59:25;;;;;;;18.83;10.90;;;;;;;;;;6193505;23;20016;-87
2023/10/24 02:01:51;;;;;;;17.63;11.75;;;;;;;;;;6192542;23;20012;-87
2023/10/24 02:04:19;;;;;;;22.13;12.20;;;;;;;;;;6193434;23;20016;-88
2023/10/24 02:06:45;;;;;;;16.15;9.70;;;;;;;;;;6193324;23;20020;-87
2023/10/24 02:09:11;;;;;;;21.55;12.05;;;;;;;;;;6193494;23;20020;-88
2023/10/24 02:11:38;;;;;;;18.38;11.32;;;;;;;;;;6192216;23;20106;-87
2023/10/24 02:14:04;;;;;;;21.50;12.77;;;;;;;;;;6192782;23;20404;-89
2023/10/24 02:16:30;;;;;;;20.65;12.07;;;;;;;;;;6194474;23;20013;-90
2023/10/24 02:19:02;;;;;;;22.58;12.65;;;;;;;;;;6194118;23;20026;-90
2023/10/24 02:21:28;;;;;;;20.33;11.30;;;;;;;;;;6193880;23;20012;-88
2023/10/24 02:23:55;;;;;;;21.52;12.02;;;;;;;;;;6193654;23;20012;-87
2023/10/24 02:26:21;;;;;;;23.25;12.95;;;;;;;;;;6193066;23;20451;-86
2023/10/24 02:28:47;;;;;;;23.63;14.07;;;;;;;;;;6191855;23;20058;-87
2023/10/24 02:31:14;;;;;;;17.88;11.35;;;;;;;;;;6192862;23;20062;-87
2023/10/24 02:33:55;;;;;;;18.83;11.20;;;;;;;;;;6136135;23;20091;-89
2023/10/24 02:36:21;;;;;;;20.30;12.10;;;;;;;;;;6194258;23;20347;-88
2023/10/24 02:38:47;;;;;;;21.80;13.20;;;;;;;;;;6193175;23;20020;-87
2023/10/24 02:41:14;;;;;;;22.52;13.27;;;;;;;;;;6193398;23;20051;-88
2023/10/24 02:43:40;;;;;;;24.27;12.75;;;;;;;;;;6193516;23;20404;-88
2023/10/24 02:46:08;;;;;;;22.50;12.68;;;;;;;;;;6218654;23;20030;-88
2023/10/24 02:48:35;;;;;;;20.80;12.77;;;;;;;;;;6192760;23;20095;-88
2023/10/24 02:51:01;;;;;;;23.10;14.30;;;;;;;;;;6193030;23;20016;-88
2023/10/24 02:53:27;;;;;;;24.83;13.75;;;;;;;;;;6193266;23;20016;-87
2023/10/24 02:55:53;;;;;;;20.08;11.95;;;;;;;;;;6219766;23;20016;-89
2023/10/24 02:58:19;;;;;;;23.10;13.48;;;;;;;;;;6195369;23;20062;-88
2023/10/24 03:00:46;;;;;;;19.85;12.60;;;;;;;;;;6195040;23;20023;-88
2023/10/24 03:03:12;;;;;;;23.17;13.68;;;;;;;;;;6195078;23;20112;-87
2023/10/24 03:05:38;;;;;;;20.60;12.65;;;;;;;;;;6194732;23;20115;-87
2023/10/24 03:08:05;;;;;;;21.08;12.95;;;;;;;;;;6195179;23;20086;-88
2023/10/24 03:10:32;;;;;;;21.20;13.07;;;;;;;;;;6195247;23;20467;-87
2023/10/24 03:13:01;;;;;;;21.27;12.88;;;;;;;;;;6220310;23;20020;-87
2023/10/24 03:15:27;;;;;;;24.08;13.25;;;;;;;;;;6194470;23;20192;-87
2023/10/24 03:17:53;;;;;;;21.13;12.32;;;;;;;;;;6195287;23;20444;-87
2023/10/24 03:20:19;;;;;;;20.00;12.23;;;;;;;;;;6219773;23;20016;-87
2023/10/24 03:22:45;;;;;;;20.23;12.52;;;;;;;;;;6203898;23;20185;-87
2023/10/24 03:25:11;;;;;;;18.67;12.43;;;;;;;;;;6233498;23;20017;-87
2023/10/24 03:27:37;;;;;;;18.38;12.30;;;;;;;;;;6227070;23;20095;-87
2023/10/24 03:30:04;;;;;;;19.38;11.98;;;;;;;;;;6194258;23;20386;-86
2023/10/24 03:32:31;;;;;;;18.40;12.07;;;;;;;;;;6195120;23;20027;-87
2023/10/24 03:34:57;;;;;;;17.23;10.90;;;;;;;;;;6220026;23;20031;-86
2023/10/24 03:37:23;;;;;;;17.20;11.50;;;;;;;;;;6219792;23;20016;-86
2023/10/24 03:39:50;;;;;;;16.02;10.82;;;;;;;;;;6195281;23;20486;-86
2023/10/24 03:42:18;;;;;;;16.75;10.68;;;;;;;;;;6219101;23;20091;-86
2023/10/24 03:44:44;;;;;;;16.88;10.85;;;;;;;;;;6194713;23;20016;-87
2023/10/24 03:47:10;;;;;;;17.63;11.70;;;;;;;;;;6194711;23;20023;-86
2023/10/24 03:49:36;;;;;;;17.00;11.18;;;;;;;;;;6194532;23;20333;-86
2023/10/24 03:52:05;;;;;;;19.08;12.25;;;;;;;;;;6219568;23;20020;-86
2023/10/24 03:54:33;;;;;;;16.88;11.50;;;;;;;;;;6245727;23;20293;-86
2023/10/24 03:57:00;;;;;;;17.73;11.35;;;;;;;;;;6219047;23;20019;-87
2023/10/24 03:59:26;;;;;;;18.42;12.07;;;;;;;;;;6219422;23;20119;-86
2023/10/24 04:01:52;;;;;;;16.65;11.63;;;;;;;;;;6246299;23;20012;-86
2023/10/24 04:04:18;;;;;;;18.85;12.30;;;;;;;;;;6219518;23;20471;-87
2023/10/24 04:06:44;;;;;;;22.10;13.20;;;;;;;;;;6193555;23;20012;-86
2023/10/24 04:09:11;;;;;;;19.17;12.55;;;;;;;;;;6193709;23;20020;-86
2023/10/24 04:11:37;;;;;;;17.08;12.23;;;;;;;;;;6192904;23;20055;-87
2023/10/24 04:14:03;;;;;;;18.27;11.75;;;;;;;;;;6219313;23;20016;-87
2023/10/24 04:16:32;;;;;;;19.65;12.63;;;;;;;;;;6219268;23;20016;-87
2023/10/24 04:18:58;;;;;;;19.58;12.60;;;;;;;;;;6219168;23;20016;-87
2023/10/24 04:21:25;;;;;;;19.52;12.57;;;;;;;;;;6193721;23;20092;-87
2023/10/24 04:23:53;;;;;;;18.20;12.60;;;;;;;;;;6218708;23;20043;-87
2023/10/24 04:26:19;;;;;;;20.92;13.38;;;;;;;;;;6194164;23;20020;-86
2023/10/24 04:28:45;;;;;;;17.75;11.93;;;;;;;;;;6192982;23;20020;-86
2023/10/24 04:31:11;;;;;;;20.38;12.95;;;;;;;;;;6193356;23;20448;-86
2023/10/24 04:33:37;;;;;;;20.02;12.68;;;;;;;;;;6218600;23;20020;-86
2023/10/24 04:36:08;;;;;;;18.70;12.55;;;;;;;;;;6218797;23;20091;-86
2023/10/24 04:38:34;;;;;;;21.02;13.35;;;;;;;;;;6194124;23;20051;-87
2023/10/24 04:41:00;;;;;;;20.88;13.05;;;;;;;;;;6218978;23;20016;-86
2023/10/24 04:43:26;;;;;;;19.67;12.77;;;;;;;;;;6193373;23;20457;-86
2023/10/24 04:45:52;;;;;;;20.17;13.18;;;;;;;;;;6218513;23;20019;-87
2023/10/24 04:48:18;;;;;;;20.58;13.05;;;;;;;;;;6194023;23;20095;-87
2023/10/24 04:50:44;;;;;;;19.13;13.07;;;;;;;;;;6193381;23;20023;-87
2023/10/24 04:53:10;;;;;;;20.08;13.63;;;;;;;;;;6194049;23;20012;-86
2023/10/24 04:55:36;;;;;;;23.58;14.55;;;;;;;;;;6193517;23;20058;-87
2023/10/24 04:58:03;;;;;;;23.98;14.38;;;;;;;;;;6193949;23;20020;-86
2023/10/24 05:00:29;;;;;;;19.77;13.43;;;;;;;;;;6245426;23;20094;-87
2023/10/24 05:02:58;;;;;;;24.17;14.52;;;;;;;;;;6193776;23;20031;-88
2023/10/24 05:05:24;;;;;;;22.63;13.75;;;;;;;;;;6199365;23;20040;-87
2023/10/24 05:07:50;;;;;;;23.00;13.68;;;;;;;;;;6205487;23;20016;-87
2023/10/24 05:10:16;;;;;;;19.40;13.38;;;;;;;;;;6205005;23;20071;-88
2023/10/24 05:12:42;;;;;;;23.58;12.63;;;;;;;;;;6197292;23;20024;-87
2023/10/24 05:15:09;;;;;;;20.10;13.30;;;;;;;;;;6195582;23;20416;-87
2023/10/24 05:17:35;;;;;;;22.50;13.75;;;;;;;;;;6194886;23;20020;-87
2023/10/24 05:20:03;;;;;;;22.17;13.90;;;;;;;;;;6194940;23;20028;-87
2023/10/24 05:22:29;;;;;;;18.27;12.70;;;;;;;;;;6194013;23;20023;-88
2023/10/24 05:24:55;;;;;;;19.23;12.40;;;;;;;;;;6246162;23;20433;-88
2023/10/24 05:27:21;;;;;;;18.90;12.50;;;;;;;;;;6193806;23;20016;-87
2023/10/24 05:29:47;;;;;;;21.27;13.07;;;;;;;;;;6193384;23;20012;-86
2023/10/24 05:32:13;;;;;;;20.30;13.50;;;;;;;;;;6218938;23;20086;-87
2023/10/24 05:34:39;;;;;;;24.35;14.40;;;;;;;;;;6246181;23;20020;-87
2023/10/24 05:37:05;;;;;;;21.38;12.93;;;;;;;;;;6194215;23;20421;-87
2023/10/24 05:39:31;;;;;;;23.55;13.18;;;;;;;;;;6193886;23;20098;-87
2023/10/24 05:41:58;;;;;;;21.05;12.75;;;;;;;;;;6193614;23;20060;-86
2023/10/24 05:44:24;;;;;;;21.40;13.40;;;;;;;;;;6194032;23;20013;-87
2023/10/24 05:46:50;;;;;;;21.30;13.85;;;;;;;;;;6218308;23;20016;-87
2023/10/24 05:49:17;;;;;;;22.88;13.63;;;;;;;;;;6193068;23;20028;-87
2023/10/24 05:51:43;;;;;;;23.73;14.07;;;;;;;;;;6218476;23;20020;-86
2023/10/24 05:54:09;;;;;;;24.27;14.05;;;;;;;;;;6243462;23;20082;-87
2023/10/24 05:56:35;;;;;;;26.52;15.02;;;;;;;;;;6244724;23;20059;-87
2023/10/24 05:59:01;;;;;;;29.15;15.45;;;;;;;;;;6192262;23;20095;-88
2023/10/24 06:01:27;;;;;;;26.98;15.77;;;;;;;;;;6217984;23;20056;-87
2023/10/24 06:03:53;;;;;;;28.17;16.95;;;;;;;;;;6193261;23;20016;-87
2023/10/24 06:06:20;;;;;;;30.83;17.85;;;;;;;;;;6244575;23;20023;-88
2023/10/24 06:08:46;;;;;;;33.08;18.23;;;;;;;;;;6192809;23;20057;-87
2023/10/24 06:11:15;;;;;;;31.60;18.42;;;;;;;;;;6193167;23;20408;-87
2023/10/24 06:13:41;;;;;;;29.00;17.60;;;;;;;;;;6245766;23;20074;-87
2023/10/24 06:16:12;;;;;;;31.40;18.20;;;;;;;;;;6191798;23;20020;-87
2023/10/24 06:18:38;;;;;;;32.03;18.52;;;;;;;;;;6192594;23;20077;-86
2023/10/24 06:21:08;;;;;;;33.35;19.00;;;;;;;;;;6217776;23;20023;-87
2023/10/24 06:23:35;;;;;;;35.15;19.40;;;;;;;;;;6218594;23;20294;-87
2023/10/24 06:26:01;;;;;;;32.58;19.27;;;;;;;;;;6191613;23;20027;-87
2023/10/24 06:28:27;;;;;;;33.83;19.55;;;;;;;;;;6191316;23;20079;-88
2023/10/24 06:31:00;;;;;;;31.73;19.50;;;;;;;;;;6190535;23;20012;-87
2023/10/24 06:33:27;;;;;;;35.30;19.55;;;;;;;;;;6217953;23;20437;-87
2023/10/24 06:35:54;;;;;;;32.67;18.80;;;;;;;;;;6218835;23;20012;-89
2023/10/24 06:38:20;;;;;;;30.10;18.98;;;;;;;;;;6193303;23;20016;-88
2023/10/24 06:40:50;;;;;;;33.03;19.23;;;;;;;;;;6218273;23;20085;-90
2023/10/24 06:43:17;;;;;;;36.42;20.35;;;;;;;;;;6193200;23;20484;-87
2023/10/24 06:45:45;;;;;;;34.30;20.38;;;;;;;;;;6218072;23;20035;-87
2023/10/24 06:48:11;;;;;;;30.48;19.05;;;;;;;;;;6224104;23;20090;-87
2023/10/24 06:50:41;;;;;;;33.90;20.13;;;;;;;;;;6198592;23;20019;-87
2023/10/24 06:53:07;;;;;;;32.38;19.08;;;;;;;;;;6217906;23;20055;-88
2023/10/24 06:55:34;;;;;;;36.22;20.25;;;;;;;;;;6192309;23;20017;-88
2023/10/24 06:58:00;;;;;;;33.00;19.90;;;;;;;;;;6193382;23;20023;-87
2023/10/24 07:00:28;;;;;;;30.20;19.27;;;;;;;;;;6193174;23;20384;-88
2023/10/24 07:02:54;;;;;;;31.15;18.40;;;;;;;;;;6193199;23;20020;-88
2023/10/24 07:05:20;;;;;;;31.05;19.33;;;;;;;;;;6193468;23;20016;-88
2023/10/24 07:07:46;;;;;;;28.05;18.17;;;;;;;;;;6193178;23;20016;-88
2023/10/24 07:10:13;;;;;;;31.45;17.88;;;;;;;;;;6193328;23;20013;-88
2023/10/24 07:12:39;;;;;;;29.10;18.80;;;;;;;;;;6218936;23;20069;-88
2023/10/24 07:15:05;;;;;;;30.95;18.35;;;;;;;;;;6218518;23;20078;-88
2023/10/24 07:17:32;;;;;;;27.48;17.23;;;;;;;;;;6192790;23;20012;-88
2023/10/24 07:20:01;;;;;;;24.65;17.25;;;;;;;;;;6193299;23;20095;-87
2023/10/24 07:22:27;;;;;;;23.83;15.63;;;;;;;;;;6192574;23;20392;-87
2023/10/24 07:24:53;;;;;;;26.58;15.60;;;;;;;;;;6218075;23;20194;-87
2023/10/24 07:27:20;;;;;;;23.60;15.40;;;;;;;;;;6217906;23;20149;-87
2023/10/24 07:29:46;;;;;;;25.40;14.80;;;;;;;;;;6192437;23;20019;-87
2023/10/24 07:32:13;;;;;;;25.42;14.80;;;;;;;;;;6192193;23;20020;-87
2023/10/24 07:34:41;;;;;;;23.60;15.27;;;;;;;;;;6216122;23;20028;-87
2023/10/24 07:37:07;;;;;;;24.55;14.65;;;;;;;;;;6216109;23;20453;-87
2023/10/24 07:39:34;;;;;;;21.10;14.05;;;;;;;;;;6191399;23;20024;-87
2023/10/24 07:42:00;;;;;;;19.52;13.20;;;;;;;;;;6218313;23;20460;-87
2023/10/24 07:44:26;;;;;;;21.35;12.27;;;;;;;;;;6193109;23;20024;-87
2023/10/24 07:46:52;;;;;;;19.92;12.63;;;;;;;;;;6193175;23;20094;-87
2023/10/24 07:49:18;;;;;;;18.90;10.98;;;;;;;;;;6194016;23;20016;-87
2023/10/24 07:51:45;;;;;;;19.15;11.50;;;;;;;;;;6194803;23;20100;-87
2023/10/24 07:54:11;;;;;;;19.55;11.90;;;;;;;;;;6193092;23;20537;-87
2023/10/24 07:56:38;;;;;;;18.52;11.82;;;;;;;;;;6195002;23;20016;-87
2023/10/24 07:59:04;;;;;;;19.67;11.15;;;;;;;;;;6194674;23;20412;-87
2023/10/24 08:01:30;;;;;;;20.50;11.70;;;;;;;;;;6194792;23;20012;-87
2023/10/24 08:03:57;;;;;;;22.05;12.10;;;;;;;;;;6246146;23;20345;-87
2023/10/24 08:06:23;;;;;;;22.42;12.43;;;;;;;;;;6194094;23;20020;-87
2023/10/24 08:08:49;;;;;;;22.67;11.95;;;;;;;;;;6194356;23;20016;-87
2023/10/24 08:11:15;;;;;;;20.83;12.18;;;;;;;;;;6192913;23;20033;-87
2023/10/24 08:13:41;;;;;;;23.77;11.68;;;;;;;;;;6194519;23;20016;-87
2023/10/24 08:16:07;;;;;;;21.58;11.93;;;;;;;;;;6194436;23;20032;-87
2023/10/24 08:18:36;;;;;;;23.15;12.43;;;;;;;;;;6219194;23;20087;-87
2023/10/24 08:21:02;;;;;;;20.83;12.10;;;;;;;;;;6218281;23;20027;-87
2023/10/24 08:23:28;;;;;;;22.73;12.73;;;;;;;;;;6195309;23;20016;-87
2023/10/24 08:25:56;;;;;;;23.65;12.50;;;;;;;;;;6194321;23;20072;-87
2023/10/24 08:28:22;;;;;;;23.77;13.23;;;;;;;;;;6222349;23;20130;-86
2023/10/24 08:30:49;;;;;;;20.83;12.05;;;;;;;;;;6199205;23;20020;-88
2023/10/24 08:33:16;;;;;;;22.63;12.13;;;;;;;;;;6195119;23;20023;-87
2023/10/24 08:35:44;;;;;;;22.85;12.27;;;;;;;;;;6219937;23;20023;-87
2023/10/24 08:38:10;;;;;;;20.55;12.23;;;;;;;;;;6220006;23;20020;-88
2023/10/24 08:40:36;;;;;;;25.10;12.75;;;;;;;;;;6219195;23;20483;-87
2023/10/24 08:43:03;;;;;;;22.65;13.07;;;;;;;;;;6219638;23;20035;-87
2023/10/24 08:45:31;;;;;;;21.52;12.60;;;;;;;;;;6192901;23;20081;-86
2023/10/24 08:47:57;;;;;;;24.83;14.02;;;;;;;;;;6218257;23;20013;-87
2023/10/24 08:50:23;;;;;;;23.98;13.32;;;;;;;;;;6218129;23;20298;-86
2023/10/24 08:52:49;;;;;;;24.30;13.50;;;;;;;;;;6217798;23;20026;-87
2023/10/24 08:55:18;;;;;;;25.00;13.20;;;;;;;;;;6217813;23;20020;-87
2023/10/24 08:57:45;;;;;;;25.95;13.55;;;;;;;;;;6219230;23;20401;-86
2023/10/24 09:00:20;;;;;;;23.13;14.38;;;;;;;;;;6193953;23;20066;-90
2023/10/24 09:02:47;;;;;;;22.97;13.40;;;;;;;;;;6194170;23;20048;-88
2023/10/24 09:05:14;;;;;;;22.80;13.30;;;;;;;;;;6218811;23;20954;-87
2023/10/24 09:07:40;;;;;;;25.67;14.05;;;;;;;;;;6194490;23;20067;-87
2023/10/24 09:10:07;;;;;;;22.58;14.07;;;;;;;;;;6194021;23;20053;-88
2023/10/24 09:12:34;;;;;;;24.27;13.90;;;;;;;;;;6194350;23;20044;-88
2023/10/24 09:15:01;;;;;;;27.17;14.77;;;;;;;;;;6193878;23;20023;-87
2023/10/24 09:17:30;;;;;;;24.48;14.13;;;;;;;;;;6194308;23;20341;-88
2023/10/24 09:19:56;;;;;;;26.15;14.65;;;;;;;;;;6194072;23;20012;-88
2023/10/24 09:22:23;;;;;;;25.60;15.35;;;;;;;;;;6194503;23;20024;-88
2023/10/24 09:24:49;;;;;;;27.70;15.35;;;;;;;;;;6195352;23;20091;-87
2023/10/24 09:27:20;;;;;;;27.25;16.73;;;;;;;;;;6195725;23;20031;-90
2023/10/24 09:29:51;;;;;;;26.85;15.38;;;;;;;;;;6195243;23;20016;-88
2023/10/24 09:32:18;;;;;;;25.70;15.32;;;;;;;;;;6219760;23;20059;-88
2023/10/24 09:34:45;;;;;;;23.45;15.27;;;;;;;;;;6195529;23;20012;-87
2023/10/24 09:37:13;;;;;;;25.02;15.63;;;;;;;;;;6194748;23;20463;-88
2023/10/24 09:40:00;;;;;;;28.40;15.93;;;;;;;;;;6219557;23;20028;-89
2023/10/24 09:42:33;;;;;;;25.85;16.40;;;;;;;;;;6194771;23;20016;-88
2023/10/24 09:45:00;;;;;;;24.80;16.35;;;;;;;;;;6195311;23;20100;-88
2023/10/24 09:47:52;;;;;;;27.58;16.25;;;;;;;;;;6195632;23;20024;-90
2023/10/24 09:50:19;;;;;;;24.08;15.98;;;;;;;;;;6177409;23;20102;-89
2023/10/24 09:52:52;;;;;;;24.73;16.67;;;;;;;;;;6194974;23;20023;-89
2023/10/24 09:55:19;;;;;;;27.05;17.30;;;;;;;;;;6218964;23;20019;-89
2023/10/24 09:57:46;;;;;;;28.90;16.90;;;;;;;;;;6194753;23;20018;-88
2023/10/24 10:00:31;;;;;;;27.23;16.52;;;;;;;;;;6194544;23;20428;-89
2023/10/24 10:03:04;;;;;;;25.25;17.30;;;;;;;;;;6195307;23;20095;-89
2023/10/24 10:05:31;;;;;;;25.80;16.65;;;;;;;;;;6194402;23;20012;-88
2023/10/24 10:07:58;;;;;;;28.63;17.65;;;;;;;;;;6219292;23;20123;-87
2023/10/24 10:10:25;;;;;;;26.92;16.88;;;;;;;;;;6220744;23;20012;-87
2023/10/24 10:12:54;;;;;;;28.60;18.20;;;;;;;;;;6195049;23;20012;-86
2023/10/24 10:15:37;;;;;;;28.55;17.33;;;;;;;;;;6194548;23;20395;-87
2023/10/24 10:18:24;;;;;;;26.95;16.90;;;;;;;;;;6218910;23;20340;-87
2023/10/24 10:20:56;;;;;;;26.67;17.70;;;;;;;;;;6193874;23;20016;-86
2023/10/24 10:23:41;;;;;;;29.30;18.13;;;;;;;;;;6219467;23;20023;-87
2023/10/24 10:26:10;;;;;;;24.52;16.17;;;;;;;;;;6192426;23;20020;-87
2023/10/24 10:28:44;;;;;;;27.65;17.13;;;;;;;;;;6191557;23;20475;-86
2023/10/24 10:31:22;;;;;;;25.00;16.50;;;;;;;;;;6192694;23;20020;-86
2023/10/24 10:33:48;;;;;;;26.83;17.10;;;;;;;;;;6218269;23;20445;-86
2023/10/24 10:36:14;;;;;;;28.52;17.02;;;;;;;;;;6218010;23;20020;-87
2023/10/24 10:38:44;;;;;;;26.75;16.67;;;;;;;;;;6193843;23;20016;-86
2023/10/24 10:41:26;;;;;;;29.73;17.23;;;;;;;;;;6246061;23;20035;-86
2023/10/24 10:44:00;;;;;;;25.52;16.17;;;;;;;;;;6218815;23;20051;-86
2023/10/24 10:46:30;;;;;;;25.98;16.42;;;;;;;;;;6218670;23;20091;-86
2023/10/24 10:48:58;;;;;;;26.10;16.75;;;;;;;;;;6217518;23;20020;-86
2023/10/24 10:51:28;;;;;;;26.60;16.83;;;;;;;;;;6193463;23;20020;-86
2023/10/24 10:53:58;;;;;;;27.25;17.48;;;;;;;;;;6193070;23;20020;-87
2023/10/24 10:56:31;;;;;;;27.13;16.13;;;;;;;;;;6193256;23;20016;-88
2023/10/24 10:58:57;;;;;;;24.33;16.65;;;;;;;;;;6193908;23;20020;-87
2023/10/24 11:01:23;;;;;;;26.15;17.30;;;;;;;;;;6219130;23;20020;-88
2023/10/24 11:04:28;;;;;;;25.38;16.80;;;;;;;;;;6196077;23;20020;-89
2023/10/24 11:06:55;;;;;;;27.48;17.08;;;;;;;;;;6189803;23;20344;-87
2023/10/24 11:09:34;;;;;;;27.95;16.60;;;;;;;;;;6193505;23;20077;-88
2023/10/24 11:12:19;;;;;;;26.60;15.80;;;;;;;;;;6193951;23;20020;-88
2023/10/24 11:15:16;;;;;;;25.75;16.23;;;;;;;;;;6193926;23;20099;-88
2023/10/24 11:17:46;;;;;;;25.23;15.85;;;;;;;;;;6195698;23;20028;-88
2023/10/24 11:20:22;;;;;;;28.30;16.83;;;;;;;;;;6195893;23;20012;-87
2023/10/24 11:22:48;;;;;;;26.30;16.77;;;;;;;;;;6195879;23;20027;-87
2023/10/24 11:25:18;;;;;;;26.02;16.30;;;;;;;;;;6195759;23;20123;-87
2023/10/24 11:27:46;;;;;;;27.33;16.83;;;;;;;;;;6195088;23;20356;-87
2023/10/24 11:30:12;;;;;;;30.17;17.95;;;;;;;;;;6195287;23;20016;-87
2023/10/24 11:32:39;;;;;;;26.48;17.08;;;;;;;;;;6195484;23;20063;-88
2023/10/24 11:35:05;;;;;;;28.98;18.35;;;;;;;;;;6200395;23;20353;-88
2023/10/24 11:37:32;;;;;;;29.75;17.73;;;;;;;;;;6201468;23;20020;-87
2023/10/24 11:39:58;;;;;;;25.55;16.65;;;;;;;;;;6200965;23;20023;-88
2023/10/24 11:42:24;;;;;;;29.17;17.25;;;;;;;;;;6197810;23;20315;-87
2023/10/24 11:44:50;;;;;;;26.55;16.63;;;;;;;;;;6201158;23;20051;-88
2023/10/24 11:47:16;;;;;;;26.15;16.85;;;;;;;;;;6202046;23;20339;-88
2023/10/24 11:49:42;;;;;;;24.75;17.02;;;;;;;;;;6213088;23;20017;-88
2023/10/24 11:52:09;;;;;;;26.77;17.00;;;;;;;;;;6207712;23;20031;-87
2023/10/24 11:54:36;;;;;;;28.50;17.40;;;;;;;;;;6200774;23;20445;-88
2023/10/24 11:57:03;;;;;;;27.63;17.98;;;;;;;;;;6228957;23;20019;-88
2023/10/24 11:59:34;;;;;;;28.40;17.90;;;;;;;;;;6222436;23;20052;-88
2023/10/24 12:02:01;;;;;;;25.77;16.75;;;;;;;;;;6197420;23;20348;-88
2023/10/24 12:04:27;;;;;;;31.23;17.95;;;;;;;;;;6196111;23;20024;-88
2023/10/24 12:07:08;;;;;;;28.40;17.67;;;;;;;;;;6196556;23;20052;-88
2023/10/24 12:09:37;;;;;;;26.55;17.05;;;;;;;;;;6197292;23;20070;-87
2023/10/24 12:12:04;;;;;;;26.10;17.00;;;;;;;;;;6195804;23;20069;-87
2023/10/24 12:14:30;;;;;;;26.85;17.80;;;;;;;;;;6196683;23;20016;-88
2023/10/24 12:17:00;;;;;;;28.15;18.13;;;;;;;;;;6196101;23;20449;-88
2023/10/24 12:19:26;;;;;;;27.83;18.27;;;;;;;;;;6197072;23;20017;-88
2023/10/24 12:21:55;;;;;;;27.27;17.15;;;;;;;;;;6197953;23;20086;-87
2023/10/24 12:24:21;;;;;;;26.23;17.55;;;;;;;;;;6198939;23;20017;-88
2023/10/24 12:26:47;;;;;;;27.27;17.55;;;;;;;;;;6197460;23;20038;-88
2023/10/24 12:29:13;;;;;;;23.77;16.95;;;;;;;;;;6196108;23;20012;-87
2023/10/24 12:31:42;;;;;;;24.40;16.40;;;;;;;;;;6195595;23;20024;-88
2023/10/24 12:34:08;;;;;;;24.17;16.88;;;;;;;;;;6220645;23;20052;-88
2023/10/24 12:36:38;;;;;;;24.85;17.23;;;;;;;;;;6195377;23;20066;-88
2023/10/24 12:39:04;;;;;;;26.33;16.98;;;;;;;;;;6195847;23;20020;-88
2023/10/24 12:41:30;;;;;;;23.10;16.38;;;;;;;;;;6195876;23;20444;-88
2023/10/24 12:43:56;;;;;;;24.77;16.52;;;;;;;;;;6195562;23;20016;-87
2023/10/24 12:46:22;;;;;;;24.02;16.45;;;;;;;;;;6195072;23;20020;-87
2023/10/24 12:48:48;;;;;;;24.33;16.70;;;;;;;;;;6195340;23;20020;-87
2023/10/24 12:51:15;;;;;;;25.15;17.02;;;;;;;;;;6195986;23;20020;-87
2023/10/24 12:53:46;;;;;;;24.65;15.30;;;;;;;;;;6195386;23;20028;-90
2023/10/24 12:56:13;;;;;;;22.85;15.15;;;;;;;;;;6193851;23;20012;-88
2023/10/24 12:58:41;;;;;;;20.80;14.55;;;;;;;;;;6196143;23;20039;-88
2023/10/24 13:01:09;;;;;;;21.17;15.90;;;;;;;;;;6195396;23;20023;-87
2023/10/24 13:03:37;;;;;;;20.52;14.60;;;;;;;;;;6194950;23;20020;-87
2023/10/24 13:06:04;;;;;;;18.60;14.63;;;;;;;;;;6194635;23;20348;-88
2023/10/24 13:08:30;;;;;;;19.58;14.93;;;;;;;;;;6194482;23;20016;-87
2023/10/24 13:10:56;;;;;;;20.58;15.20;;;;;;;;;;6194240;23;20020;-88
2023/10/24 13:13:23;;;;;;;21.25;15.55;;;;;;;;;;6194352;23;20027;-87
2023/10/24 13:15:50;;;;;;;19.52;14.13;;;;;;;;;;6194006;23;20019;-88
2023/10/24 13:18:16;;;;;;;20.55;15.48;;;;;;;;;;6219971;23;20016;-87
2023/10/24 13:20:42;;;;;;;19.88;14.05;;;;;;;;;;6219566;23;20020;-87
2023/10/24 13:23:08;;;;;;;16.60;13.18;;;;;;;;;;6195298;23;20012;-87
2023/10/24 13:25:34;;;;;;;18.58;14.05;;;;;;;;;;6195653;23;20305;-87
2023/10/24 13:28:01;;;;;;;18.63;14.25;;;;;;;;;;6195123;23;20016;-87
2023/10/24 13:30:29;;;;;;;15.88;12.88;;;;;;;;;;6227553;23;20016;-87
2023/10/24 13:32:55;;;;;;;17.80;13.80;;;;;;;;;;6202056;23;20020;-87
2023/10/24 13:35:21;;;;;;;19.15;13.90;;;;;;;;;;6222210;23;20055;-87
2023/10/24 13:37:47;;;;;;;16.60;13.02;;;;;;;;;;6194784;23;20024;-87
2023/10/24 13:40:19;;;;;;;16.02;12.75;;;;;;;;;;6195529;23;20023;-87
2023/10/24 13:42:46;;;;;;;17.00;12.80;;;;;;;;;;6194765;23;20099;-88
2023/10/24 13:45:12;;;;;;;17.77;13.50;;;;;;;;;;6195149;23;20023;-88
2023/10/24 13:47:38;;;;;;;17.83;14.60;;;;;;;;;;6220059;23;20436;-89
2023/10/24 13:50:05;;;;;;;20.58;15.00;;;;;;;;;;6194437;23;20044;-90
2023/10/24 13:52:33;;;;;;;20.17;15.40;;;;;;;;;;6194422;23;20012;-91
2023/10/24 13:55:01;;;;;;;22.52;15.70;;;;;;;;;;6195370;23;20478;-90
2023/10/24 13:57:27;;;;;;;23.02;17.25;;;;;;;;;;6194707;23;20086;-90
2023/10/24 13:59:54;;;;;;;25.15;17.25;;;;;;;;;;6194622;23;20467;-89
2023/10/24 14:02:20;;;;;;;21.00;16.38;;;;;;;;;;6194119;23;20476;-90
2023/10/24 14:04:46;;;;;;;24.50;16.52;;;;;;;;;;6219564;23;20506;-89
2023/10/24 14:07:12;;;;;;;23.70;17.08;;;;;;;;;;6246361;23;20022;-89
2023/10/24 14:09:38;;;;;;;24.25;17.08;;;;;;;;;;6194627;23;20035;-89
2023/10/24 14:12:04;;;;;;;24.10;17.17;;;;;;;;;;6194912;23;20405;-90
2023/10/24 14:14:32;;;;;;;25.80;18.35;;;;;;;;;;6194812;23;20026;-90
2023/10/24 14:16:58;;;;;;;28.55;19.15;;;;;;;;;;6194125;23;20066;-89
2023/10/24 14:19:25;;;;;;;27.42;20.75;;;;;;;;;;6219746;23;20020;-90
2023/10/24 14:21:53;;;;;;;27.50;19.50;;;;;;;;;;6195936;23;20369;-91